sensor_id;sensor_type;location;lat;lon;timestamp;temperature;humidity
34815;DHT22;21030;53.912;15.214;2024-01-07T00:00:09;17.80;23.60
34815;DHT22;21030;53.912;15.214;2024-01-07T00:02:36;18.60;24.00
34815;DHT22;21030;53.912;15.214;2024-01-07T00:05:04;18.00;23.60
34815;DHT22;21030;53.912;15.214;2024-01-07T00:07:31;18.20;23.90
34815;DHT22;21030;53.912;15.214;2024-01-07T00:09:58;18.10;23.40
34815;DHT22;21030;53.912;15.214;2024-01-07T00:12:28;18.40;23.60
34815;DHT22;21030;53.912;15.214;2024-01-07T00:14:56;18.60;23.80
34815;DHT22;21030;53.912;15.214;2024-01-07T00:17:23;18.00;23.70
34815;DHT22;21030;53.912;15.214;2024-01-07T00:19:50;17.20;24.00
34815;DHT22;21030;53.912;15.214;2024-01-07T00:22:17;18.50;23.90
34815;DHT22;21030;53.912;15.214;2024-01-07T00:24:44;19.60;23.50
34815;DHT22;21030;53.912;15.214;2024-01-07T00:27:11;19.20;22.80
34815;DHT22;21030;53.912;15.214;2024-01-07T00:29:38;21.00;22.40
34815;DHT22;21030;53.912;15.214;2024-01-07T00:32:05;21.50;21.50
34815;DHT22;21030;53.912;15.214;2024-01-07T00:34:32;22.70;20.70
34815;DHT22;21030;53.912;15.214;2024-01-07T00:37:00;24.30;19.70
34815;DHT22;21030;53.912;15.214;2024-01-07T00:39:27;24.60;19.40
34815;DHT22;21030;53.912;15.214;2024-01-07T00:41:54;24.90;18.90
34815;DHT22;21030;53.912;15.214;2024-01-07T00:44:21;22.80;18.80
34815;DHT22;21030;53.912;15.214;2024-01-07T00:46:48;20.80;19.80
34815;DHT22;21030;53.912;15.214;2024-01-07T00:49:15;20.60;21.30
34815;DHT22;21030;53.912;15.214;2024-01-07T00:51:44;23.00;20.80
34815;DHT22;21030;53.912;15.214;2024-01-07T00:54:11;25.40;19.20
34815;DHT22;21030;53.912;15.214;2024-01-07T00:56:38;26.00;18.60
34815;DHT22;21030;53.912;15.214;2024-01-07T00:59:05;23.60;18.30
34815;DHT22;21030;53.912;15.214;2024-01-07T01:01:32;23.60;19.00
34815;DHT22;21030;53.912;15.214;2024-01-07T01:03:59;25.50;18.70
34815;DHT22;21030;53.912;15.214;2024-01-07T01:06:26;25.80;18.10
34815;DHT22;21030;53.912;15.214;2024-01-07T01:08:55;26.20;17.90
34815;DHT22;21030;53.912;15.214;2024-01-07T01:11:22;25.20;17.90
34815;DHT22;21030;53.912;15.214;2024-01-07T01:13:48;23.00;18.30
34815;DHT22;21030;53.912;15.214;2024-01-07T01:16:15;23.10;19.70
34815;DHT22;21030;53.912;15.214;2024-01-07T01:18:42;23.10;18.90
34815;DHT22;21030;53.912;15.214;2024-01-07T01:21:09;22.10;20.20
34815;DHT22;21030;53.912;15.214;2024-01-07T01:23:36;21.30;20.10
34815;DHT22;21030;53.912;15.214;2024-01-07T01:26:04;21.40;21.00
34815;DHT22;21030;53.912;15.214;2024-01-07T01:28:31;21.30;20.80
34815;DHT22;21030;53.912;15.214;2024-01-07T01:30:58;21.60;20.70
34815;DHT22;21030;53.912;15.214;2024-01-07T01:33:25;21.20;20.50
34815;DHT22;21030;53.912;15.214;2024-01-07T01:35:52;22.40;20.70
34815;DHT22;21030;53.912;15.214;2024-01-07T01:38:20;22.70;20.10
34815;DHT22;21030;53.912;15.214;2024-01-07T01:40:54;22.60;19.90
34815;DHT22;21030;53.912;15.214;2024-01-07T01:43:28;23.30;19.80
34815;DHT22;21030;53.912;15.214;2024-01-07T01:45:56;22.30;19.40
34815;DHT22;21030;53.912;15.214;2024-01-07T01:48:24;20.20;20.80
34815;DHT22;21030;53.912;15.214;2024-01-07T01:50:53;18.90;22.00
34815;DHT22;21030;53.912;15.214;2024-01-07T01:53:21;18.70;22.90
34815;DHT22;21030;53.912;15.214;2024-01-07T01:55:48;19.30;22.80
34815;DHT22;21030;53.912;15.214;2024-01-07T01:58:17;19.70;22.10
34815;DHT22;21030;53.912;15.214;2024-01-07T02:00:44;19.70;22.40
34815;DHT22;21030;53.912;15.214;2024-01-07T02:03:12;21.10;21.90
34815;DHT22;21030;53.912;15.214;2024-01-07T02:05:39;20.80;21.60
34815;DHT22;21030;53.912;15.214;2024-01-07T02:08:07;20.70;21.80
34815;DHT22;21030;53.912;15.214;2024-01-07T02:10:34;19.70;21.70
34815;DHT22;21030;53.912;15.214;2024-01-07T02:13:06;21.20;21.80
34815;DHT22;21030;53.912;15.214;2024-01-07T02:15:36;20.60;21.50
34815;DHT22;21030;53.912;15.214;2024-01-07T02:18:03;20.80;21.20
34815;DHT22;21030;53.912;15.214;2024-01-07T02:20:30;21.80;21.20
34815;DHT22;21030;53.912;15.214;2024-01-07T02:22:57;22.80;20.70
34815;DHT22;21030;53.912;15.214;2024-01-07T02:25:24;24.20;19.40
34815;DHT22;21030;53.912;15.214;2024-01-07T02:27:51;24.60;18.80
34815;DHT22;21030;53.912;15.214;2024-01-07T02:30:18;22.60;19.30
34815;DHT22;21030;53.912;15.214;2024-01-07T02:32:45;22.30;19.80
34815;DHT22;21030;53.912;15.214;2024-01-07T02:35:13;21.40;20.50
34815;DHT22;21030;53.912;15.214;2024-01-07T02:37:40;22.10;20.50
34815;DHT22;21030;53.912;15.214;2024-01-07T02:40:07;21.40;20.60
34815;DHT22;21030;53.912;15.214;2024-01-07T02:42:34;21.60;21.20
34815;DHT22;21030;53.912;15.214;2024-01-07T02:45:01;22.40;20.80
34815;DHT22;21030;53.912;15.214;2024-01-07T02:47:28;24.70;19.80
34815;DHT22;21030;53.912;15.214;2024-01-07T02:49:55;24.20;18.80
34815;DHT22;21030;53.912;15.214;2024-01-07T02:52:23;25.00;18.90
34815;DHT22;21030;53.912;15.214;2024-01-07T02:54:51;25.60;18.60
34815;DHT22;21030;53.912;15.214;2024-01-07T02:57:18;27.10;18.10
34815;DHT22;21030;53.912;15.214;2024-01-07T02:59:45;27.60;17.50
34815;DHT22;21030;53.912;15.214;2024-01-07T03:02:12;28.30;17.30
34815;DHT22;21030;53.912;15.214;2024-01-07T03:04:39;28.10;17.20
34815;DHT22;21030;53.912;15.214;2024-01-07T03:07:06;28.60;17.00
34815;DHT22;21030;53.912;15.214;2024-01-07T03:09:33;28.80;17.00
34815;DHT22;21030;53.912;15.214;2024-01-07T03:12:00;29.20;16.70
34815;DHT22;21030;53.912;15.214;2024-01-07T03:14:27;29.20;16.60
34815;DHT22;21030;53.912;15.214;2024-01-07T03:16:54;29.50;16.60
34815;DHT22;21030;53.912;15.214;2024-01-07T03:19:21;29.70;16.50
34815;DHT22;21030;53.912;15.214;2024-01-07T03:21:50;29.70;16.30
34815;DHT22;21030;53.912;15.214;2024-01-07T03:24:17;29.70;16.30
34815;DHT22;21030;53.912;15.214;2024-01-07T03:26:44;29.60;16.40
34815;DHT22;21030;53.912;15.214;2024-01-07T03:29:11;29.80;16.30
34815;DHT22;21030;53.912;15.214;2024-01-07T03:31:38;30.00;16.30
34815;DHT22;21030;53.912;15.214;2024-01-07T03:34:05;30.10;16.30
34815;DHT22;21030;53.912;15.214;2024-01-07T03:36:32;30.20;16.20
34815;DHT22;21030;53.912;15.214;2024-01-07T03:38:59;30.30;16.10
34815;DHT22;21030;53.912;15.214;2024-01-07T03:41:27;30.30;16.20
34815;DHT22;21030;53.912;15.214;2024-01-07T03:43:53;30.20;16.10
34815;DHT22;21030;53.912;15.214;2024-01-07T03:46:21;30.00;16.20
34815;DHT22;21030;53.912;15.214;2024-01-07T03:48:48;30.00;16.20
34815;DHT22;21030;53.912;15.214;2024-01-07T03:51:15;30.00;16.30
34815;DHT22;21030;53.912;15.214;2024-01-07T03:53:42;30.00;16.40
34815;DHT22;21030;53.912;15.214;2024-01-07T03:56:09;30.10;16.30
34815;DHT22;21030;53.912;15.214;2024-01-07T03:58:36;30.10;16.30
34815;DHT22;21030;53.912;15.214;2024-01-07T04:01:03;30.00;16.30
34815;DHT22;21030;53.912;15.214;2024-01-07T04:03:30;30.10;16.30
34815;DHT22;21030;53.912;15.214;2024-01-07T04:05:57;30.20;16.40
34815;DHT22;21030;53.912;15.214;2024-01-07T04:08:25;30.10;16.30
34815;DHT22;21030;53.912;15.214;2024-01-07T04:10:52;30.30;16.40
34815;DHT22;21030;53.912;15.214;2024-01-07T04:13:19;30.20;16.40
34815;DHT22;21030;53.912;15.214;2024-01-07T04:15:47;30.20;16.30
34815;DHT22;21030;53.912;15.214;2024-01-07T04:18:14;30.30;16.40
34815;DHT22;21030;53.912;15.214;2024-01-07T04:20:41;30.20;16.30
34815;DHT22;21030;53.912;15.214;2024-01-07T04:23:08;30.40;16.40
34815;DHT22;21030;53.912;15.214;2024-01-07T04:25:35;30.40;16.30
34815;DHT22;21030;53.912;15.214;2024-01-07T04:28:02;30.30;16.30
34815;DHT22;21030;53.912;15.214;2024-01-07T04:30:29;30.30;16.30
34815;DHT22;21030;53.912;15.214;2024-01-07T04:32:56;30.30;16.30
34815;DHT22;21030;53.912;15.214;2024-01-07T04:35:23;30.30;16.30
34815;DHT22;21030;53.912;15.214;2024-01-07T04:37:51;30.30;16.30
34815;DHT22;21030;53.912;15.214;2024-01-07T04:40:18;30.40;16.20
34815;DHT22;21030;53.912;15.214;2024-01-07T04:42:45;30.40;16.20
34815;DHT22;21030;53.912;15.214;2024-01-07T04:45:12;30.40;16.20
34815;DHT22;21030;53.912;15.214;2024-01-07T04:47:39;30.40;16.30
34815;DHT22;21030;53.912;15.214;2024-01-07T04:50:07;30.40;16.20
34815;DHT22;21030;53.912;15.214;2024-01-07T04:52:34;30.50;16.20
34815;DHT22;21030;53.912;15.214;2024-01-07T04:55:01;30.40;16.10
34815;DHT22;21030;53.912;15.214;2024-01-07T04:57:28;30.50;16.20
34815;DHT22;21030;53.912;15.214;2024-01-07T04:59:55;30.60;16.30
34815;DHT22;21030;53.912;15.214;2024-01-07T05:02:22;30.60;16.20
34815;DHT22;21030;53.912;15.214;2024-01-07T05:04:50;30.60;16.30
34815;DHT22;21030;53.912;15.214;2024-01-07T05:07:17;30.60;16.20
34815;DHT22;21030;53.912;15.214;2024-01-07T05:09:47;30.50;16.20
34815;DHT22;21030;53.912;15.214;2024-01-07T05:12:14;30.60;16.20
34815;DHT22;21030;53.912;15.214;2024-01-07T05:14:41;30.50;16.90
34815;DHT22;21030;53.912;15.214;2024-01-07T05:17:09;30.50;16.40
34815;DHT22;21030;53.912;15.214;2024-01-07T05:19:36;30.60;16.50
34815;DHT22;21030;53.912;15.214;2024-01-07T05:22:06;30.50;16.50
34815;DHT22;21030;53.912;15.214;2024-01-07T05:24:33;30.40;16.60
34815;DHT22;21030;53.912;15.214;2024-01-07T05:27:03;30.40;16.70
34815;DHT22;21030;53.912;15.214;2024-01-07T05:29:30;30.40;16.80
34815;DHT22;21030;53.912;15.214;2024-01-07T05:31:57;30.20;16.80
34815;DHT22;21030;53.912;15.214;2024-01-07T05:34:24;30.10;16.90
34815;DHT22;21030;53.912;15.214;2024-01-07T05:36:52;30.00;16.80
34815;DHT22;21030;53.912;15.214;2024-01-07T05:39:19;30.10;16.90
34815;DHT22;21030;53.912;15.214;2024-01-07T05:41:46;29.90;16.80
34815;DHT22;21030;53.912;15.214;2024-01-07T05:44:13;29.90;17.00
34815;DHT22;21030;53.912;15.214;2024-01-07T05:46:40;29.70;16.90
34815;DHT22;21030;53.912;15.214;2024-01-07T05:49:08;29.70;17.00
34815;DHT22;21030;53.912;15.214;2024-01-07T05:51:39;29.70;17.00
34815;DHT22;21030;53.912;15.214;2024-01-07T05:54:07;29.60;17.00
34815;DHT22;21030;53.912;15.214;2024-01-07T05:56:40;29.50;17.10
34815;DHT22;21030;53.912;15.214;2024-01-07T05:59:08;29.20;17.10
34815;DHT22;21030;53.912;15.214;2024-01-07T06:01:35;28.90;17.30
34815;DHT22;21030;53.912;15.214;2024-01-07T06:04:02;28.60;17.40
34815;DHT22;21030;53.912;15.214;2024-01-07T06:06:30;28.80;17.50
34815;DHT22;21030;53.912;15.214;2024-01-07T06:08:57;28.90;17.40
34815;DHT22;21030;53.912;15.214;2024-01-07T06:11:24;28.70;17.50
34815;DHT22;21030;53.912;15.214;2024-01-07T06:13:51;28.80;17.50
34815;DHT22;21030;53.912;15.214;2024-01-07T06:16:18;28.80;17.40
34815;DHT22;21030;53.912;15.214;2024-01-07T06:18:45;28.70;17.50
34815;DHT22;21030;53.912;15.214;2024-01-07T06:21:13;28.80;17.50
34815;DHT22;21030;53.912;15.214;2024-01-07T06:23:40;28.90;17.40
34815;DHT22;21030;53.912;15.214;2024-01-07T06:26:07;29.20;17.50
34815;DHT22;21030;53.912;15.214;2024-01-07T06:28:34;29.00;17.40
34815;DHT22;21030;53.912;15.214;2024-01-07T06:31:03;29.00;17.40
34815;DHT22;21030;53.912;15.214;2024-01-07T06:33:31;29.10;17.40
34815;DHT22;21030;53.912;15.214;2024-01-07T06:35:58;29.20;17.30
34815;DHT22;21030;53.912;15.214;2024-01-07T06:38:25;29.60;17.20
34815;DHT22;21030;53.912;15.214;2024-01-07T06:40:52;29.60;17.20
34815;DHT22;21030;53.912;15.214;2024-01-07T06:43:24;29.70;17.10
34815;DHT22;21030;53.912;15.214;2024-01-07T06:45:51;29.80;17.10
34815;DHT22;21030;53.912;15.214;2024-01-07T06:48:18;29.90;17.00
34815;DHT22;21030;53.912;15.214;2024-01-07T06:50:45;29.60;17.00
34815;DHT22;21030;53.912;15.214;2024-01-07T06:53:12;29.70;17.00
34815;DHT22;21030;53.912;15.214;2024-01-07T06:55:39;29.70;17.20
34815;DHT22;21030;53.912;15.214;2024-01-07T06:58:06;29.80;17.10
34815;DHT22;21030;53.912;15.214;2024-01-07T07:00:33;29.70;16.90
34815;DHT22;21030;53.912;15.214;2024-01-07T07:03:00;29.80;17.00
34815;DHT22;21030;53.912;15.214;2024-01-07T07:05:27;29.80;17.10
34815;DHT22;21030;53.912;15.214;2024-01-07T07:07:54;29.80;17.00
34815;DHT22;21030;53.912;15.214;2024-01-07T07:10:21;29.90;17.10
34815;DHT22;21030;53.912;15.214;2024-01-07T07:12:48;29.90;17.00
34815;DHT22;21030;53.912;15.214;2024-01-07T07:15:17;29.90;17.00
34815;DHT22;21030;53.912;15.214;2024-01-07T07:17:45;29.80;17.20
34815;DHT22;21030;53.912;15.214;2024-01-07T07:20:12;29.70;17.20
34815;DHT22;21030;53.912;15.214;2024-01-07T07:22:39;29.60;17.20
34815;DHT22;21030;53.912;15.214;2024-01-07T07:25:06;29.30;17.30
34815;DHT22;21030;53.912;15.214;2024-01-07T07:27:33;29.30;17.40
34815;DHT22;21030;53.912;15.214;2024-01-07T07:30:01;28.80;17.70
34815;DHT22;21030;53.912;15.214;2024-01-07T07:32:27;28.20;18.20
34815;DHT22;21030;53.912;15.214;2024-01-07T07:34:55;28.20;18.50
34815;DHT22;21030;53.912;15.214;2024-01-07T07:37:22;28.20;18.60
34815;DHT22;21030;53.912;15.214;2024-01-07T07:39:49;28.70;18.60
34815;DHT22;21030;53.912;15.214;2024-01-07T07:42:16;28.30;18.90
34815;DHT22;21030;53.912;15.214;2024-01-07T07:44:43;27.80;19.50
34815;DHT22;21030;53.912;15.214;2024-01-07T07:47:10;27.00;20.40
34815;DHT22;21030;53.912;15.214;2024-01-07T07:49:38;26.90;20.60
34815;DHT22;21030;53.912;15.214;2024-01-07T07:52:08;26.60;20.90
34815;DHT22;21030;53.912;15.214;2024-01-07T07:54:37;26.50;21.10
34815;DHT22;21030;53.912;15.214;2024-01-07T07:57:05;26.70;21.20
34815;DHT22;21030;53.912;15.214;2024-01-07T07:59:32;26.50;21.40
34815;DHT22;21030;53.912;15.214;2024-01-07T08:01:59;26.70;21.50
34815;DHT22;21030;53.912;15.214;2024-01-07T08:04:26;27.20;21.10
34815;DHT22;21030;53.912;15.214;2024-01-07T08:06:54;25.90;21.80
34815;DHT22;21030;53.912;15.214;2024-01-07T08:09:23;25.10;22.00
34815;DHT22;21030;53.912;15.214;2024-01-07T08:11:52;24.80;22.20
34815;DHT22;21030;53.912;15.214;2024-01-07T08:14:19;23.60;23.10
34815;DHT22;21030;53.912;15.214;2024-01-07T08:16:46;25.10;22.80
34815;DHT22;21030;53.912;15.214;2024-01-07T08:19:13;25.40;21.70
34815;DHT22;21030;53.912;15.214;2024-01-07T08:21:41;23.30;21.70
34815;DHT22;21030;53.912;15.214;2024-01-07T08:24:08;22.40;23.10
34815;DHT22;21030;53.912;15.214;2024-01-07T08:26:37;21.20;24.30
34815;DHT22;21030;53.912;15.214;2024-01-07T08:29:04;21.20;24.40
34815;DHT22;21030;53.912;15.214;2024-01-07T08:31:31;22.30;24.20
34815;DHT22;21030;53.912;15.214;2024-01-07T08:33:59;23.40;23.20
34815;DHT22;21030;53.912;15.214;2024-01-07T08:36:27;25.00;21.80
34815;DHT22;21030;53.912;15.214;2024-01-07T08:38:55;25.30;20.80
34815;DHT22;21030;53.912;15.214;2024-01-07T08:41:22;25.60;20.60
34815;DHT22;21030;53.912;15.214;2024-01-07T08:43:49;26.90;19.50
34815;DHT22;21030;53.912;15.214;2024-01-07T08:46:16;26.90;19.20
34815;DHT22;21030;53.912;15.214;2024-01-07T08:48:43;27.00;18.60
34815;DHT22;21030;53.912;15.214;2024-01-07T08:51:10;26.70;18.00
34815;DHT22;21030;53.912;15.214;2024-01-07T08:53:37;24.30;18.20
34815;DHT22;21030;53.912;15.214;2024-01-07T08:56:04;24.20;19.10
34815;DHT22;21030;53.912;15.214;2024-01-07T08:58:33;23.40;19.60
34815;DHT22;21030;53.912;15.214;2024-01-07T09:01:00;22.80;19.90
34815;DHT22;21030;53.912;15.214;2024-01-07T09:03:27;24.00;19.90
34815;DHT22;21030;53.912;15.214;2024-01-07T09:05:54;24.30;19.70
34815;DHT22;21030;53.912;15.214;2024-01-07T09:08:21;25.10;19.70
34815;DHT22;21030;53.912;15.214;2024-01-07T09:10:49;26.70;18.80
34815;DHT22;21030;53.912;15.214;2024-01-07T09:13:17;27.80;18.10
34815;DHT22;21030;53.912;15.214;2024-01-07T09:15:44;27.60;18.00
34815;DHT22;21030;53.912;15.214;2024-01-07T09:18:11;28.20;17.60
34815;DHT22;21030;53.912;15.214;2024-01-07T09:20:38;28.30;17.50
34815;DHT22;21030;53.912;15.214;2024-01-07T09:23:05;29.00;17.30
34815;DHT22;21030;53.912;15.214;2024-01-07T09:25:32;29.50;17.00
34815;DHT22;21030;53.912;15.214;2024-01-07T09:27:59;29.20;17.20
34815;DHT22;21030;53.912;15.214;2024-01-07T09:30:28;26.40;16.80
34815;DHT22;21030;53.912;15.214;2024-01-07T09:32:55;26.50;17.40
34815;DHT22;21030;53.912;15.214;2024-01-07T09:35:22;24.70;17.70
34815;DHT22;21030;53.912;15.214;2024-01-07T09:37:49;25.20;18.50
34815;DHT22;21030;53.912;15.214;2024-01-07T09:40:19;23.40;18.60
34815;DHT22;21030;53.912;15.214;2024-01-07T09:42:47;24.90;19.50
34815;DHT22;21030;53.912;15.214;2024-01-07T09:45:14;25.30;18.90
34815;DHT22;21030;53.912;15.214;2024-01-07T09:47:42;26.00;18.30
34815;DHT22;21030;53.912;15.214;2024-01-07T09:50:11;26.60;18.30
34815;DHT22;21030;53.912;15.214;2024-01-07T09:52:43;25.80;17.90
34815;DHT22;21030;53.912;15.214;2024-01-07T09:55:25;26.30;17.90
34815;DHT22;21030;53.912;15.214;2024-01-07T09:57:54;26.20;17.70
34815;DHT22;21030;53.912;15.214;2024-01-07T10:00:21;24.90;18.10
34815;DHT22;21030;53.912;15.214;2024-01-07T10:02:48;25.10;18.70
34815;DHT22;21030;53.912;15.214;2024-01-07T10:05:15;26.00;18.60
34815;DHT22;21030;53.912;15.214;2024-01-07T10:07:44;26.70;18.30
34815;DHT22;21030;53.912;15.214;2024-01-07T10:10:16;26.90;18.10
34815;DHT22;21030;53.912;15.214;2024-01-07T10:12:46;26.30;17.90
34815;DHT22;21030;53.912;15.214;2024-01-07T10:15:14;25.20;18.50
34815;DHT22;21030;53.912;15.214;2024-01-07T10:17:42;25.20;18.40
34815;DHT22;21030;53.912;15.214;2024-01-07T10:20:10;24.10;18.70
34815;DHT22;21030;53.912;15.214;2024-01-07T10:22:37;22.50;19.80
34815;DHT22;21030;53.912;15.214;2024-01-07T10:25:05;22.70;20.20
34815;DHT22;21030;53.912;15.214;2024-01-07T10:27:36;22.70;20.40
34815;DHT22;21030;53.912;15.214;2024-01-07T10:30:04;22.70;20.50
34815;DHT22;21030;53.912;15.214;2024-01-07T10:32:31;21.20;21.70
34815;DHT22;21030;53.912;15.214;2024-01-07T10:35:03;22.20;20.90
34815;DHT22;21030;53.912;15.214;2024-01-07T10:37:31;22.70;20.40
34815;DHT22;21030;53.912;15.214;2024-01-07T10:39:58;24.60;20.10
34815;DHT22;21030;53.912;15.214;2024-01-07T10:42:34;24.70;19.10
34815;DHT22;21030;53.912;15.214;2024-01-07T10:45:01;25.10;19.00
34815;DHT22;21030;53.912;15.214;2024-01-07T10:47:30;24.20;18.70
34815;DHT22;21030;53.912;15.214;2024-01-07T10:50:02;22.90;20.20
34815;DHT22;21030;53.912;15.214;2024-01-07T10:52:32;23.70;19.50
34815;DHT22;21030;53.912;15.214;2024-01-07T10:55:08;23.90;20.00
34815;DHT22;21030;53.912;15.214;2024-01-07T10:57:46;22.90;20.60
34815;DHT22;21030;53.912;15.214;2024-01-07T11:00:15;22.50;20.60
34815;DHT22;21030;53.912;15.214;2024-01-07T11:03:11;22.00;20.90
34815;DHT22;21030;53.912;15.214;2024-01-07T11:05:52;21.20;21.50
34815;DHT22;21030;53.912;15.214;2024-01-07T11:08:55;20.30;22.50
34815;DHT22;21030;53.912;15.214;2024-01-07T11:11:27;19.90;22.50
34815;DHT22;21030;53.912;15.214;2024-01-07T11:13:59;19.90;22.90
34815;DHT22;21030;53.912;15.214;2024-01-07T11:16:42;20.30;22.90
34815;DHT22;21030;53.912;15.214;2024-01-07T11:19:13;22.00;22.50
34815;DHT22;21030;53.912;15.214;2024-01-07T11:21:41;22.40;20.90
34815;DHT22;21030;53.912;15.214;2024-01-07T11:24:08;23.20;20.50
34815;DHT22;21030;53.912;15.214;2024-01-07T11:26:37;22.80;20.80
34815;DHT22;21030;53.912;15.214;2024-01-07T11:29:23;23.00;20.60
34815;DHT22;21030;53.912;15.214;2024-01-07T11:31:50;23.40;20.70
34815;DHT22;21030;53.912;15.214;2024-01-07T11:37:20;22.90;20.00
34815;DHT22;21030;53.912;15.214;2024-01-07T11:39:50;24.50;20.30
34815;DHT22;21030;53.912;15.214;2024-01-07T11:42:18;23.50;19.30
34815;DHT22;21030;53.912;15.214;2024-01-07T11:44:50;22.90;20.30
34815;DHT22;21030;53.912;15.214;2024-01-07T11:47:18;22.80;20.40
34815;DHT22;21030;53.912;15.214;2024-01-07T11:49:46;21.40;21.40
34815;DHT22;21030;53.912;15.214;2024-01-07T11:52:14;23.40;21.30
34815;DHT22;21030;53.912;15.214;2024-01-07T11:54:41;25.60;19.70
34815;DHT22;21030;53.912;15.214;2024-01-07T11:57:10;25.60;18.50
34815;DHT22;21030;53.912;15.214;2024-01-07T11:59:37;26.40;18.40
34815;DHT22;21030;53.912;15.214;2024-01-07T12:02:10;27.10;18.50
34815;DHT22;21030;53.912;15.214;2024-01-07T12:04:37;27.90;18.10
34815;DHT22;21030;53.912;15.214;2024-01-07T12:07:04;27.40;17.70
34815;DHT22;21030;53.912;15.214;2024-01-07T12:09:32;28.10;17.60
34815;DHT22;21030;53.912;15.214;2024-01-07T12:11:59;27.60;17.60
34815;DHT22;21030;53.912;15.214;2024-01-07T12:14:28;27.70;17.50
34815;DHT22;21030;53.912;15.214;2024-01-07T12:16:55;26.90;17.80
34815;DHT22;21030;53.912;15.214;2024-01-07T12:19:23;24.90;17.50
34815;DHT22;21030;53.912;15.214;2024-01-07T12:22:05;24.10;19.10
34815;DHT22;21030;53.912;15.214;2024-01-07T12:24:33;22.80;19.60
34815;DHT22;21030;53.912;15.214;2024-01-07T12:27:05;22.30;21.10
34815;DHT22;21030;53.912;15.214;2024-01-07T12:29:32;23.10;21.00
34815;DHT22;21030;53.912;15.214;2024-01-07T12:31:59;23.40;19.90
34815;DHT22;21030;53.912;15.214;2024-01-07T12:34:27;22.70;21.00
34815;DHT22;21030;53.912;15.214;2024-01-07T12:36:54;22.30;20.60
34815;DHT22;21030;53.912;15.214;2024-01-07T12:39:23;23.70;21.10
34815;DHT22;21030;53.912;15.214;2024-01-07T12:41:55;25.30;19.80
34815;DHT22;21030;53.912;15.214;2024-01-07T12:44:27;22.90;18.90
34815;DHT22;21030;53.912;15.214;2024-01-07T12:46:54;23.00;20.60
34815;DHT22;21030;53.912;15.214;2024-01-07T12:49:21;21.80;20.10
34815;DHT22;21030;53.912;15.214;2024-01-07T12:51:49;21.90;20.10
34815;DHT22;21030;53.912;15.214;2024-01-07T12:54:17;19.40;21.80
34815;DHT22;21030;53.912;15.214;2024-01-07T12:56:44;19.70;22.30
34815;DHT22;21030;53.912;15.214;2024-01-07T12:59:11;19.20;22.40
34815;DHT22;21030;53.912;15.214;2024-01-07T13:01:37;20.10;22.30
34815;DHT22;21030;53.912;15.214;2024-01-07T13:04:05;20.10;21.70
34815;DHT22;21030;53.912;15.214;2024-01-07T13:06:32;21.30;21.40
34815;DHT22;21030;53.912;15.214;2024-01-07T13:08:59;24.00;20.10
34815;DHT22;21030;53.912;15.214;2024-01-07T13:11:31;24.80;18.70
34815;DHT22;21030;53.912;15.214;2024-01-07T13:13:58;24.10;18.30
34815;DHT22;21030;53.912;15.214;2024-01-07T13:16:27;23.90;18.70
34815;DHT22;21030;53.912;15.214;2024-01-07T13:18:55;24.90;18.60
34815;DHT22;21030;53.912;15.214;2024-01-07T13:21:22;24.90;18.30
34815;DHT22;21030;53.912;15.214;2024-01-07T13:23:49;25.80;17.90
34815;DHT22;21030;53.912;15.214;2024-01-07T13:26:16;25.20;17.40
34815;DHT22;21030;53.912;15.214;2024-01-07T13:28:43;24.50;17.60
34815;DHT22;21030;53.912;15.214;2024-01-07T13:31:10;24.30;18.00
34815;DHT22;21030;53.912;15.214;2024-01-07T13:33:40;23.60;18.40
34815;DHT22;21030;53.912;15.214;2024-01-07T13:36:07;24.50;18.60
34815;DHT22;21030;53.912;15.214;2024-01-07T13:38:37;24.30;18.30
34815;DHT22;21030;53.912;15.214;2024-01-07T13:41:11;24.50;18.10
34815;DHT22;21030;53.912;15.214;2024-01-07T13:43:38;24.20;18.40
34815;DHT22;21030;53.912;15.214;2024-01-07T13:46:07;24.30;18.20
34815;DHT22;21030;53.912;15.214;2024-01-07T13:48:38;24.10;18.10
34815;DHT22;21030;53.912;15.214;2024-01-07T13:51:09;24.90;18.80
34815;DHT22;21030;53.912;15.214;2024-01-07T13:53:36;24.50;17.80
34815;DHT22;21030;53.912;15.214;2024-01-07T13:56:06;24.30;18.20
34815;DHT22;21030;53.912;15.214;2024-01-07T13:58:34;23.90;18.40
34815;DHT22;21030;53.912;15.214;2024-01-07T14:01:01;24.80;17.90
34815;DHT22;21030;53.912;15.214;2024-01-07T14:03:28;24.00;18.00
34815;DHT22;21030;53.912;15.214;2024-01-07T14:05:57;23.90;18.10
34815;DHT22;21030;53.912;15.214;2024-01-07T14:08:24;24.20;18.30
34815;DHT22;21030;53.912;15.214;2024-01-07T14:10:51;24.30;18.40
34815;DHT22;21030;53.912;15.214;2024-01-07T14:13:36;23.80;18.20
34815;DHT22;21030;53.912;15.214;2024-01-07T14:16:03;21.10;19.30
34815;DHT22;21030;53.912;15.214;2024-01-07T14:18:31;22.00;19.60
34815;DHT22;21030;53.912;15.214;2024-01-07T14:20:58;21.00;19.10
34815;DHT22;21030;53.912;15.214;2024-01-07T14:23:25;20.80;19.40
34815;DHT22;21030;53.912;15.214;2024-01-07T14:25:52;20.00;20.10
34815;DHT22;21030;53.912;15.214;2024-01-07T14:28:19;20.50;20.10
34815;DHT22;21030;53.912;15.214;2024-01-07T14:30:46;20.10;19.70
34815;DHT22;21030;53.912;15.214;2024-01-07T14:33:13;19.60;19.70
34815;DHT22;21030;53.912;15.214;2024-01-07T14:35:41;18.00;20.00
34815;DHT22;21030;53.912;15.214;2024-01-07T14:38:09;17.70;21.20
34815;DHT22;21030;53.912;15.214;2024-01-07T14:40:36;19.50;21.00
34815;DHT22;21030;53.912;15.214;2024-01-07T14:43:03;20.70;19.50
34815;DHT22;21030;53.912;15.214;2024-01-07T14:45:30;19.90;18.50
34815;DHT22;21030;53.912;15.214;2024-01-07T14:47:57;19.90;19.00
34815;DHT22;21030;53.912;15.214;2024-01-07T14:50:25;21.10;18.90
34815;DHT22;21030;53.912;15.214;2024-01-07T14:53:02;20.20;17.80
34815;DHT22;21030;53.912;15.214;2024-01-07T14:55:31;21.20;18.20
34815;DHT22;21030;53.912;15.214;2024-01-07T14:57:58;19.70;18.00
34815;DHT22;21030;53.912;15.214;2024-01-07T15:00:25;20.10;18.30
34815;DHT22;21030;53.912;15.214;2024-01-07T15:02:52;20.00;17.90
34815;DHT22;21030;53.912;15.214;2024-01-07T15:05:19;20.00;17.50
34815;DHT22;21030;53.912;15.214;2024-01-07T15:07:46;20.00;17.30
34815;DHT22;21030;53.912;15.214;2024-01-07T15:10:16;19.20;16.70
34815;DHT22;21030;53.912;15.214;2024-01-07T15:12:44;18.50;17.50
34815;DHT22;21030;53.912;15.214;2024-01-07T15:15:23;18.20;18.40
34815;DHT22;21030;53.912;15.214;2024-01-07T15:17:53;16.70;19.20
34815;DHT22;21030;53.912;15.214;2024-01-07T15:20:21;15.80;20.10
34815;DHT22;21030;53.912;15.214;2024-01-07T15:22:48;16.70;20.30